createdAt,value
2022-08-03T00:04:20.664Z,15.80
2022-08-03T00:10:22.421Z,15.70
2022-08-03T00:16:25.595Z,15.70
2022-08-03T00:22:27.451Z,15.60
2022-08-03T00:28:29.472Z,15.60
2022-08-03T00:34:36.513Z,15.50
2022-08-03T00:40:53.760Z,15.40
2022-08-03T00:46:55.529Z,15.30
2022-08-03T00:52:59.706Z,15.30
2022-08-03T00:59:03.382Z,15.30
2022-08-03T01:05:05.610Z,15.30
2022-08-03T01:11:17.645Z,15.20
2022-08-03T01:17:36.753Z,15.20
2022-08-03T01:23:44.750Z,15.00
2022-08-03T01:29:57.119Z,15.10
2022-08-03T01:36:16.488Z,15.00
2022-08-03T01:42:19.947Z,15.10
2022-08-03T01:48:22.514Z,15.00
2022-08-03T01:54:26.202Z,15.00
2022-08-03T02:00:28.286Z,14.90
2022-08-03T02:06:59.797Z,15.00
2022-08-03T02:12:59.044Z,15.00
2022-08-03T02:19:04.332Z,15.00
2022-08-03T02:25:08.438Z,14.90
2022-08-03T02:31:16.588Z,14.90
2022-08-03T02:37:19.841Z,14.80
2022-08-03T02:43:24.248Z,14.60
2022-08-03T02:49:40.830Z,14.50
2022-08-03T02:55:50.673Z,14.50
2022-08-03T03:01:54.706Z,14.50
2022-08-03T03:07:57.127Z,14.40
2022-08-03T03:14:00.769Z,14.30
2022-08-03T03:20:03.846Z,14.30
2022-08-03T03:26:06.630Z,14.20
2022-08-03T03:32:09.273Z,14.20
2022-08-03T03:38:11.856Z,14.10
2022-08-03T03:44:15.446Z,14.20
2022-08-03T03:50:19.366Z,14.20
2022-08-03T03:56:21.285Z,14.10
2022-08-03T04:02:23.338Z,14.10
2022-08-03T04:08:43.813Z,14.20
2022-08-03T04:14:53.708Z,14.20
2022-08-03T04:20:57.749Z,14.30
2022-08-03T04:27:02.694Z,14.30
2022-08-03T04:33:05.439Z,14.30
2022-08-03T04:39:12.496Z,14.40
2022-08-03T04:45:16.295Z,14.70
2022-08-03T04:51:18.457Z,15.20
2022-08-03T04:57:23.078Z,16.50
2022-08-03T05:03:25.355Z,18.90
2022-08-03T05:09:50.455Z,20.80
2022-08-03T05:15:49.395Z,22.50
2022-08-03T05:21:52.848Z,22.40
2022-08-03T05:27:54.880Z,22.10
2022-08-03T05:33:57.569Z,21.30
2022-08-03T05:39:59.406Z,20.70
2022-08-03T05:46:08.107Z,20.60
2022-08-03T05:52:16.986Z,20.60
2022-08-03T05:58:19.885Z,20.80
2022-08-03T06:04:21.818Z,21.00
2022-08-03T06:10:36.980Z,21.00
2022-08-03T06:16:39.943Z,21.20
2022-08-03T06:22:50.881Z,21.30
2022-08-03T06:29:03.844Z,21.70
2022-08-03T06:35:10.146Z,21.70
2022-08-03T06:41:11.988Z,22.00
2022-08-03T06:47:13.820Z,22.10
2022-08-03T06:53:21.190Z,22.40
2022-08-03T07:00:06.231Z,22.30
2022-08-03T07:05:49.167Z,22.40
2022-08-03T07:11:50.932Z,22.70
2022-08-03T07:17:52.758Z,23.00
2022-08-03T07:23:54.613Z,23.10
2022-08-03T07:29:58.490Z,23.40
2022-08-03T07:36:00.330Z,23.60
2022-08-03T07:42:02.320Z,23.70
2022-08-03T07:48:08.778Z,23.80
2022-08-03T07:54:14.581Z,24.00
2022-08-03T08:00:18.804Z,24.30
2022-08-03T08:06:21.651Z,24.60
2022-08-03T08:12:23.698Z,24.80
2022-08-03T08:18:25.863Z,25.10
2022-08-03T08:24:30.288Z,25.50
2022-08-03T08:30:33.782Z,25.80
2022-08-03T08:36:37.089Z,25.90
2022-08-03T08:42:51.873Z,26.20
2022-08-03T08:49:00.476Z,26.30
2022-08-03T08:55:08.024Z,26.50
2022-08-03T09:01:13.525Z,26.80
2022-08-03T09:07:20.609Z,27.10
2022-08-03T09:13:22.708Z,27.40
2022-08-03T09:19:24.623Z,27.50
2022-08-03T09:25:34.781Z,27.80
2022-08-03T09:31:44.374Z,28.20
2022-08-03T09:38:12.805Z,28.60
2022-08-03T09:44:09.012Z,28.70
2022-08-03T09:50:26.615Z,28.90
2022-08-03T09:56:42.187Z,29.20
2022-08-03T10:02:45.363Z,29.50
2022-08-03T10:08:47.632Z,29.70
2022-08-03T10:14:49.666Z,29.80
2022-08-03T10:20:53.833Z,30.10
2022-08-03T10:27:09.895Z,30.40
2022-08-03T10:33:50.183Z,30.30
2022-08-03T10:39:56.353Z,30.60
2022-08-03T10:46:00.355Z,30.80
2022-08-03T10:52:09.665Z,30.90
2022-08-03T10:58:15.112Z,31.10
2022-08-03T11:04:32.577Z,31.00
2022-08-03T11:10:35.354Z,31.40
2022-08-03T11:16:41.872Z,31.60
2022-08-03T11:22:54.620Z,31.30
2022-08-03T11:29:29.783Z,31.40
2022-08-03T11:35:35.471Z,31.50
2022-08-03T11:41:43.338Z,31.60
2022-08-03T11:47:50.690Z,31.70
2022-08-03T11:53:57.592Z,31.90
2022-08-03T11:59:59.905Z,31.90
2022-08-03T12:06:02.441Z,31.90
2022-08-03T12:12:06.570Z,32.10
2022-08-03T12:18:17.075Z,32.30
2022-08-03T12:24:18.915Z,32.20
2022-08-03T12:30:20.855Z,32.30
2022-08-03T12:36:25.913Z,32.30
2022-08-03T12:42:35.751Z,32.30
2022-08-03T12:48:54.640Z,32.90
2022-08-03T12:54:58.176Z,33.10
2022-08-03T13:01:00.095Z,32.90
2022-08-03T13:07:14.284Z,33.00
2022-08-03T13:13:16.753Z,33.30
2022-08-03T13:19:18.885Z,33.90
2022-08-03T13:25:20.836Z,34.00
2022-08-03T13:31:22.719Z,33.90
2022-08-03T13:37:25.318Z,34.40
2022-08-03T13:43:27.384Z,34.10
2022-08-03T13:49:30.026Z,34.10
2022-08-03T13:55:31.926Z,33.70
2022-08-03T14:01:54.302Z,33.70
2022-08-03T14:07:58.522Z,34.00
2022-08-03T14:14:06.766Z,33.80
2022-08-03T14:20:38.959Z,33.80
2022-08-03T14:26:31.791Z,34.30
2022-08-03T14:32:33.713Z,34.60
2022-08-03T14:38:35.646Z,34.80
2022-08-03T14:44:37.479Z,34.70
2022-08-03T14:50:44.227Z,34.50
2022-08-03T14:56:48.809Z,34.70
2022-08-03T15:02:50.840Z,34.20
2022-08-03T15:09:21.688Z,34.20
2022-08-03T15:15:14.987Z,34.20
2022-08-03T15:21:20.825Z,34.20
2022-08-03T15:28:02.771Z,34.20
2022-08-03T15:34:00.914Z,34.30
2022-08-03T15:40:03.629Z,34.80
2022-08-03T15:46:28.679Z,34.80
2022-08-03T15:52:28.031Z,34.40
2022-08-03T15:59:03.571Z,34.10
2022-08-03T16:04:52.345Z,33.90
2022-08-03T16:10:54.279Z,34.40
2022-08-03T16:16:56.905Z,34.30
2022-08-03T16:22:58.983Z,34.40
2022-08-03T16:29:03.624Z,35.20
2022-08-03T16:35:06.454Z,34.60
2022-08-03T16:41:08.290Z,33.90
2022-08-03T16:47:10.128Z,33.90
2022-08-03T16:53:51.570Z,34.50
2022-08-03T16:59:47.328Z,34.60
2022-08-03T17:05:52.890Z,33.80
2022-08-03T17:11:54.637Z,33.40
2022-08-03T17:18:07.739Z,33.50
2022-08-03T17:24:20.475Z,33.70
2022-08-03T17:30:22.294Z,33.70
2022-08-03T17:36:47.581Z,33.50
2022-08-03T17:42:50.455Z,32.20
2022-08-03T17:48:54.066Z,31.60
2022-08-03T17:55:56.146Z,31.90
2022-08-03T18:02:30.437Z,31.80
2022-08-03T18:08:37.060Z,30.40
2022-08-03T18:14:57.918Z,29.70
2022-08-03T18:21:09.323Z,29.90
2022-08-03T18:27:21.493Z,29.50
2022-08-03T18:34:16.593Z,28.30
2022-08-03T18:39:52.877Z,27.70
2022-08-03T18:45:58.123Z,26.80
2022-08-03T18:52:04.797Z,26.20
2022-08-03T18:58:17.985Z,25.90
2022-08-03T19:04:33.386Z,25.90
2022-08-03T19:10:38.230Z,25.30
2022-08-03T19:16:47.248Z,25.10
2022-08-03T19:22:51.354Z,24.90
2022-08-03T19:28:59.451Z,24.70
2022-08-03T19:35:05.493Z,24.70
2022-08-03T19:41:23.488Z,24.60
2022-08-03T19:47:31.891Z,24.50
2022-08-03T19:53:37.229Z,24.20
2022-08-03T19:59:50.181Z,23.60
2022-08-03T20:05:54.174Z,23.40
2022-08-03T20:11:59.717Z,23.40
2022-08-03T20:18:01.597Z,22.90
2022-08-03T20:24:24.255Z,22.50
2022-08-03T20:30:27.299Z,22.20
2022-08-03T20:36:30.464Z,21.50
2022-08-03T20:42:35.856Z,21.40
2022-08-03T20:48:37.984Z,21.30
2022-08-03T20:54:41.427Z,21.10
2022-08-03T21:00:44.325Z,21.10
2022-08-03T21:06:57.403Z,20.90
2022-08-03T21:13:38.231Z,20.40
2022-08-03T21:19:52.159Z,20.10
2022-08-03T21:25:54.652Z,19.90
2022-08-03T21:31:58.030Z,19.70
2022-08-03T21:38:18.521Z,19.80
2022-08-03T21:44:25.117Z,19.80
2022-08-03T21:50:34.164Z,19.50
2022-08-03T21:56:41.019Z,19.30
2022-08-03T22:02:54.524Z,19.40
2022-08-03T22:08:58.166Z,19.40
2022-08-03T22:15:02.300Z,19.20
2022-08-03T22:21:06.649Z,19.10
2022-08-03T22:27:30.964Z,19.00
2022-08-03T22:33:36.639Z,19.00
2022-08-03T22:39:39.867Z,19.00
2022-08-03T22:46:09.024Z,18.80
2022-08-03T22:52:10.146Z,18.70
2022-08-03T22:58:15.558Z,18.60
2022-08-03T23:04:18.672Z,18.40
2022-08-03T23:10:27.229Z,18.00
2022-08-03T23:16:30.095Z,17.90
2022-08-03T23:22:38.946Z,17.90
2022-08-03T23:28:48.634Z,18.00
2022-08-03T23:35:12.042Z,18.00
2022-08-03T23:41:14.812Z,18.00
2022-08-03T23:47:16.635Z,17.90
2022-08-03T23:53:25.692Z,17.80
2022-08-03T23:59:49.128Z,17.70
